createdAt,value
2018-11-02T00:01:10.367Z,53.23
2018-11-02T00:03:40.573Z,54.70
2018-11-02T00:06:10.870Z,51.43
2018-11-02T00:08:41.124Z,54.60
2018-11-02T00:11:11.213Z,58.87
2018-11-02T00:13:41.301Z,55.27
2018-11-02T00:16:11.492Z,54.87
2018-11-02T00:18:41.517Z,55.80
2018-11-02T00:21:11.739Z,56.93
2018-11-02T00:23:41.868Z,50.87
2018-11-02T00:26:12.725Z,47.60
2018-11-02T00:28:42.849Z,51.87
2018-11-02T00:31:13.046Z,54.00
2018-11-02T00:33:43.271Z,47.37
2018-11-02T00:36:13.496Z,50.07
2018-11-02T00:38:43.628Z,50.77
2018-11-02T00:41:13.898Z,48.90
2018-11-02T00:43:44.080Z,50.57
2018-11-02T00:46:14.191Z,43.87
2018-11-02T00:48:44.524Z,52.20
2018-11-02T00:51:14.639Z,47.87
2018-11-02T00:53:44.753Z,49.20
2018-11-02T00:56:14.884Z,49.70
2018-11-02T00:58:45.112Z,46.97
2018-11-02T01:01:15.948Z,46.60
2018-11-02T01:03:46.173Z,43.83
2018-11-02T01:06:16.398Z,47.70
2018-11-02T01:08:46.725Z,46.53
2018-11-02T01:11:16.951Z,46.23
2018-11-02T01:13:47.175Z,46.03
2018-11-02T01:16:17.296Z,46.10
2018-11-02T01:18:47.428Z,44.97
2018-11-02T01:21:17.645Z,45.30
2018-11-02T01:23:47.759Z,44.00
2018-11-02T01:26:18.097Z,45.63
2018-11-02T01:28:48.200Z,46.20
2018-11-02T01:31:18.282Z,44.77
2018-11-02T01:33:48.369Z,52.33
2018-11-02T01:36:19.024Z,41.20
2018-11-02T01:38:49.220Z,43.50
2018-11-02T01:41:19.400Z,46.70
2018-11-02T01:43:49.770Z,45.63
2018-11-02T01:46:19.997Z,46.97
2018-11-02T01:48:50.220Z,47.30
2018-11-02T01:51:20.346Z,46.47
2018-11-02T01:53:50.570Z,41.47
2018-11-02T01:56:20.792Z,45.13
2018-11-02T01:58:51.025Z,42.30
2018-11-02T02:01:21.139Z,41.67
2018-11-02T02:03:51.205Z,45.47
2018-11-02T02:06:21.301Z,40.30
2018-11-02T02:08:51.396Z,48.30
2018-11-02T02:11:22.040Z,43.93
2018-11-02T02:13:52.264Z,45.90
2018-11-02T02:16:22.824Z,47.80
2018-11-02T02:18:53.123Z,42.43
2018-11-02T02:21:23.217Z,40.40
2018-11-02T02:23:53.314Z,40.30
2018-11-02T02:26:23.312Z,42.80
2018-11-02T02:28:53.612Z,49.87
2018-11-02T02:31:23.737Z,42.43
2018-11-02T02:33:53.800Z,41.77
2018-11-02T02:36:23.897Z,40.47
2018-11-02T02:38:54.008Z,43.53
2018-11-02T02:41:24.106Z,46.63
2018-11-02T02:43:54.253Z,41.27
2018-11-02T02:46:24.485Z,39.17
2018-11-02T02:49:12.700Z,43.63
2018-11-02T02:51:45.324Z,42.83
2018-11-02T02:54:15.611Z,40.10
2018-11-02T02:56:45.838Z,40.27
2018-11-02T02:59:15.958Z,40.90
2018-11-02T03:01:46.183Z,36.07
2018-11-02T03:04:16.612Z,37.47
2018-11-02T03:06:47.144Z,45.50
2018-11-02T03:09:17.836Z,42.03
2018-11-02T03:11:48.106Z,40.60
2018-11-02T03:14:18.330Z,45.33
2018-11-02T03:16:49.169Z,44.87
2018-11-02T03:19:19.336Z,43.00
2018-11-02T03:21:49.529Z,37.63
2018-11-02T03:24:19.742Z,43.27
2018-11-02T03:26:49.892Z,38.27
2018-11-02T03:29:19.980Z,38.77
2018-11-02T03:31:50.212Z,41.37
2018-11-02T03:34:20.374Z,39.73
2018-11-02T03:36:50.460Z,38.50
2018-11-02T03:39:20.682Z,31.43
2018-11-02T03:41:50.806Z,31.37
2018-11-02T03:44:21.334Z,32.90
2018-11-02T03:46:51.490Z,31.80
2018-11-02T03:49:21.682Z,36.17
2018-11-02T03:51:51.805Z,32.80
2018-11-02T03:54:21.952Z,37.50
2018-11-02T03:56:52.282Z,36.77
2018-11-02T03:59:22.292Z,33.00
2018-11-02T04:01:52.576Z,36.53
2018-11-02T04:04:22.664Z,29.47
2018-11-02T04:06:52.968Z,37.50
2018-11-02T04:09:23.201Z,35.13
2018-11-02T04:11:54.033Z,34.30
2018-11-02T04:14:24.237Z,30.37
2018-11-02T04:16:54.372Z,35.77
2018-11-02T04:19:24.500Z,33.47
2018-11-02T04:21:54.708Z,32.00
2018-11-02T04:24:25.035Z,31.27
2018-11-02T04:26:55.260Z,33.57
2018-11-02T04:29:25.361Z,33.27
2018-11-02T04:31:55.490Z,32.23
2018-11-02T04:34:26.241Z,31.73
2018-11-02T04:36:56.363Z,34.53
2018-11-02T04:39:26.944Z,31.33
2018-11-02T04:41:57.120Z,35.70
2018-11-02T04:44:27.346Z,33.07
2018-11-02T04:46:57.570Z,31.53
2018-11-02T04:49:34.772Z,34.63
2018-11-02T04:52:09.496Z,33.83
2018-11-02T04:54:40.379Z,37.30
2018-11-02T04:57:10.461Z,36.03
2018-11-02T04:59:40.532Z,33.47
2018-11-02T05:02:10.686Z,31.73
2018-11-02T05:04:40.913Z,41.30
2018-11-02T05:07:11.034Z,36.47
2018-11-02T05:09:41.119Z,36.20
2018-11-02T05:12:11.287Z,36.93
2018-11-02T05:14:41.594Z,32.13
2018-11-02T05:17:11.831Z,31.77
2018-11-02T05:19:41.809Z,34.73
2018-11-02T05:22:12.812Z,33.73
2018-11-02T05:24:43.017Z,36.77
2018-11-02T05:27:13.160Z,31.50
2018-11-02T05:29:43.467Z,30.77
2018-11-02T05:32:13.692Z,32.67
2018-11-02T05:34:43.916Z,33.40
2018-11-02T05:37:14.168Z,37.37
2018-11-02T05:39:44.459Z,31.80
2018-11-02T05:42:14.693Z,38.07
2018-11-02T05:44:44.804Z,36.10
2018-11-02T05:47:14.940Z,30.10
2018-11-02T05:49:45.156Z,33.07
2018-11-02T05:52:15.292Z,34.77
2018-11-02T05:54:45.436Z,31.20
2018-11-02T05:57:16.145Z,35.37
2018-11-02T05:59:46.164Z,40.20
2018-11-02T06:02:17.100Z,34.70
2018-11-02T06:04:47.740Z,27.70
2018-11-02T06:07:18.067Z,32.93
2018-11-02T06:09:48.291Z,30.27
2018-11-02T06:12:18.424Z,38.77
2018-11-02T06:14:48.531Z,40.37
2018-11-02T06:17:18.658Z,34.20
2018-11-02T06:19:48.885Z,34.23
2018-11-02T06:22:19.013Z,34.00
2018-11-02T06:24:49.053Z,44.30
2018-11-02T06:27:19.353Z,30.60
2018-11-02T06:29:50.093Z,37.40
2018-11-02T06:32:20.881Z,34.97
2018-11-02T06:34:51.153Z,35.63
2018-11-02T06:37:21.378Z,35.67
2018-11-02T06:39:51.432Z,35.00
2018-11-02T06:42:21.500Z,32.37
2018-11-02T06:44:51.760Z,40.83
2018-11-02T06:47:21.971Z,38.50
2018-11-02T06:49:52.565Z,36.53
2018-11-02T06:52:22.830Z,37.60
2018-11-02T06:54:53.512Z,47.30
2018-11-02T06:57:23.634Z,49.07
2018-11-02T06:59:54.091Z,43.33
2018-11-02T07:02:24.035Z,42.63
2018-11-02T07:04:54.073Z,46.67
2018-11-02T07:07:24.221Z,54.07
2018-11-02T07:09:54.404Z,40.17
2018-11-02T07:12:24.525Z,46.27
2018-11-02T07:14:54.668Z,40.83
2018-11-02T07:17:24.760Z,49.80
2018-11-02T07:19:55.668Z,53.93
2018-11-02T07:22:25.936Z,62.77
2018-11-02T07:24:56.743Z,48.60
2018-11-02T07:27:27.000Z,44.60
2018-11-02T07:29:57.224Z,60.57
2018-11-02T07:32:27.356Z,74.60
2018-11-02T07:34:57.834Z,58.10
2018-11-02T07:37:27.909Z,52.07
2018-11-02T07:39:58.056Z,65.00
2018-11-02T07:42:28.349Z,58.03
2018-11-02T07:44:58.573Z,74.10
2018-11-02T07:47:28.853Z,61.23
2018-11-02T07:49:59.022Z,61.70
2018-11-02T07:52:29.247Z,70.43
2018-11-02T07:54:59.581Z,59.87
2018-11-02T07:57:29.799Z,53.47
2018-11-02T08:00:00.262Z,65.73
2018-11-02T08:02:30.555Z,71.23
2018-11-02T08:05:00.635Z,67.50
2018-11-02T08:07:30.785Z,55.57
2018-11-02T08:10:00.937Z,62.37
2018-11-02T08:12:31.046Z,61.27
2018-11-02T08:15:01.141Z,45.07
2018-11-02T08:17:31.238Z,54.97
2018-11-02T08:20:01.341Z,72.43
2018-11-02T08:22:31.551Z,60.23
2018-11-02T08:25:01.782Z,55.90
2018-11-02T08:27:31.996Z,71.23
2018-11-02T08:30:02.113Z,80.37
2018-11-02T08:32:32.181Z,77.70
2018-11-02T08:35:02.304Z,96.77
2018-11-02T08:37:32.389Z,92.73
2018-11-02T08:40:02.504Z,144.23
2018-11-02T08:42:32.600Z,96.60
2018-11-02T08:45:02.717Z,125.07
2018-11-02T08:47:32.857Z,133.00
2018-11-02T08:50:02.996Z,114.13
2018-11-02T08:52:33.097Z,142.77
2018-11-02T08:55:03.229Z,76.87
2018-11-02T08:57:33.343Z,93.63
2018-11-02T09:00:03.734Z,60.70
2018-11-02T09:02:33.785Z,126.03
2018-11-02T09:05:04.117Z,60.87
2018-11-02T09:07:34.137Z,59.57
2018-11-02T09:10:04.613Z,57.70
2018-11-02T09:12:34.704Z,88.93
2018-11-02T09:15:05.041Z,97.57
2018-11-02T09:17:35.217Z,82.83
2018-11-02T09:20:05.544Z,56.53
2018-11-02T09:22:35.661Z,58.47
2018-11-02T09:25:07.437Z,79.50
2018-11-02T09:27:38.521Z,256.87
2018-11-02T09:30:11.189Z,61.40
2018-11-02T09:32:41.321Z,62.20
2018-11-02T09:35:11.397Z,90.43
2018-11-02T09:37:41.825Z,53.27
2018-11-02T09:40:12.438Z,45.93
2018-11-02T09:42:42.670Z,55.03
2018-11-02T09:45:13.835Z,69.90
2018-11-02T09:47:44.316Z,56.77
2018-11-02T09:50:14.420Z,50.40
2018-11-02T09:52:44.552Z,59.20
2018-11-02T09:55:15.678Z,73.77
2018-11-02T09:57:46.484Z,85.10
2018-11-02T10:00:16.560Z,95.63
2018-11-02T10:02:46.728Z,84.13
2018-11-02T10:05:16.822Z,90.70
2018-11-02T10:07:47.033Z,90.63
2018-11-02T10:10:17.087Z,88.60
2018-11-02T10:12:47.241Z,84.63
2018-11-02T10:15:17.385Z,69.20
2018-11-02T10:17:47.562Z,74.03
2018-11-02T10:20:17.676Z,83.13
2018-11-02T10:22:48.662Z,74.73
2018-11-02T10:25:18.801Z,76.93
2018-11-02T10:27:49.061Z,80.83
2018-11-02T10:30:19.290Z,70.43
2018-11-02T10:32:51.281Z,71.60
2018-11-02T10:35:21.497Z,65.80
2018-11-02T10:37:52.006Z,64.07
2018-11-02T10:40:22.144Z,65.97
2018-11-02T10:42:57.869Z,66.30
2018-11-02T10:45:31.770Z,63.40
2018-11-02T10:48:03.144Z,62.20
2018-11-02T10:50:33.261Z,64.90
2018-11-02T10:53:03.561Z,58.10
2018-11-02T10:55:33.668Z,62.67
2018-11-02T10:58:03.841Z,62.40
2018-11-02T11:00:39.079Z,57.67
2018-11-02T11:03:09.157Z,54.40
2018-11-02T11:05:39.232Z,54.77
2018-11-02T11:08:09.336Z,60.37
2018-11-02T11:10:39.456Z,55.93
2018-11-02T11:13:09.859Z,56.50
2018-11-02T11:15:39.584Z,54.27
2018-11-02T11:18:09.804Z,58.87
2018-11-02T11:20:39.928Z,61.80
2018-11-02T11:23:10.009Z,55.10
2018-11-02T11:25:40.113Z,57.47
2018-11-02T11:28:10.280Z,68.80
2018-11-02T11:30:40.740Z,61.70
2018-11-02T11:33:11.030Z,53.37
2018-11-02T11:35:41.132Z,62.27
2018-11-02T11:38:11.340Z,68.03
2018-11-02T11:40:41.464Z,63.17
2018-11-02T11:43:11.993Z,62.23
2018-11-02T11:45:42.190Z,59.37
2018-11-02T11:48:12.352Z,64.67
2018-11-02T11:50:42.489Z,59.17
2018-11-02T11:53:12.673Z,57.30
2018-11-02T11:55:42.815Z,57.23
2018-11-02T11:58:12.862Z,58.70
2018-11-02T12:00:42.980Z,58.00
2018-11-02T12:03:13.116Z,54.13
2018-11-02T12:05:43.277Z,46.13
2018-11-02T12:08:13.410Z,45.80
2018-11-02T12:10:43.428Z,44.70
2018-11-02T12:13:13.605Z,41.80
2018-11-02T12:15:43.769Z,47.17
2018-11-02T12:18:13.897Z,39.80
2018-11-02T12:20:43.996Z,44.23
2018-11-02T12:23:14.146Z,47.10
2018-11-02T12:25:44.313Z,57.90
2018-11-02T12:28:14.440Z,48.93
2018-11-02T12:30:44.662Z,53.03
2018-11-02T12:33:14.732Z,44.97
2018-11-02T12:35:44.845Z,40.17
2018-11-02T12:38:14.912Z,32.63
2018-11-02T12:40:44.992Z,31.03
2018-11-02T12:43:15.161Z,29.33
2018-11-02T12:45:45.194Z,26.77
2018-11-02T12:48:15.353Z,27.57
2018-11-02T12:50:45.352Z,25.07
2018-11-02T12:53:15.542Z,27.80
2018-11-02T12:55:45.588Z,26.03
2018-11-02T12:58:15.704Z,25.67
2018-11-02T13:00:45.704Z,28.30
2018-11-02T13:03:15.788Z,24.53
2018-11-02T13:05:45.938Z,28.20
2018-11-02T13:08:16.068Z,22.73
2018-11-02T13:10:46.206Z,24.87
2018-11-02T13:13:16.281Z,22.83
2018-11-02T13:15:46.521Z,26.10
2018-11-02T13:18:18.892Z,24.83
2018-11-02T13:20:49.003Z,23.57
2018-11-02T13:23:19.096Z,28.37
2018-11-02T13:25:49.251Z,26.77
2018-11-02T13:28:19.466Z,23.57
2018-11-02T13:30:49.625Z,26.33
2018-11-02T13:33:19.772Z,30.10
2018-11-02T13:35:49.887Z,25.77
2018-11-02T13:38:19.986Z,28.20
2018-11-02T13:40:50.076Z,23.00
2018-11-02T13:43:20.330Z,24.43
2018-11-02T13:45:50.353Z,22.27
2018-11-02T13:48:20.504Z,23.57
2018-11-02T13:50:50.609Z,25.07
2018-11-02T13:53:20.713Z,23.97
2018-11-02T13:55:50.848Z,23.30
2018-11-02T13:58:20.972Z,25.73
2018-11-02T14:00:51.119Z,22.27
2018-11-02T14:03:21.276Z,24.03
2018-11-02T14:05:51.373Z,23.33
2018-11-02T14:08:21.475Z,24.97
2018-11-02T14:10:51.575Z,24.27
2018-11-02T14:13:21.696Z,26.77
2018-11-02T14:15:51.808Z,22.10
2018-11-02T14:18:21.957Z,25.70
2018-11-02T14:20:52.089Z,28.20
2018-11-02T14:23:22.181Z,25.77
2018-11-02T14:25:52.280Z,27.13
2018-11-02T14:28:22.328Z,25.57
2018-11-02T14:30:52.413Z,26.00
2018-11-02T14:33:22.409Z,26.73
2018-11-02T14:35:52.476Z,24.03
2018-11-02T14:38:22.604Z,24.57
2018-11-02T14:40:52.840Z,27.50
2018-11-02T14:43:22.812Z,31.43
2018-11-02T14:45:53.037Z,30.93
2018-11-02T14:48:23.109Z,27.90
2018-11-02T14:50:53.221Z,29.53
2018-11-02T14:53:23.358Z,28.63
2018-11-02T14:55:53.633Z,28.37
2018-11-02T14:58:23.692Z,29.23
2018-11-02T15:00:53.873Z,29.07
2018-11-02T15:03:23.957Z,29.40
2018-11-02T15:05:54.145Z,31.23
2018-11-02T15:08:24.190Z,26.77
2018-11-02T15:10:54.364Z,28.67
2018-11-02T15:13:24.465Z,29.67
2018-11-02T15:15:54.581Z,40.60
2018-11-02T15:18:24.692Z,39.00
2018-11-02T15:20:54.968Z,29.50
2018-11-02T15:23:25.125Z,27.23
2018-11-02T15:25:55.257Z,27.87
2018-11-02T15:28:25.325Z,28.20
2018-11-02T15:30:55.470Z,29.87
2018-11-02T15:33:25.606Z,26.10
2018-11-02T15:35:55.728Z,26.87
2018-11-02T15:38:25.965Z,28.50
2018-11-02T15:40:56.057Z,27.63
2018-11-02T15:43:26.277Z,27.40
2018-11-02T15:45:56.420Z,24.87
2018-11-02T15:48:26.493Z,29.07
2018-11-02T15:50:56.740Z,27.20
2018-11-02T15:53:26.848Z,28.70
2018-11-02T15:55:56.913Z,27.47
2018-11-02T15:58:27.048Z,28.53
2018-11-02T16:00:57.140Z,26.23
2018-11-02T16:03:27.273Z,28.00
2018-11-02T16:05:57.451Z,27.87
2018-11-02T16:08:27.493Z,30.63
2018-11-02T16:10:57.945Z,24.40
2018-11-02T16:13:28.048Z,28.13
2018-11-02T16:15:58.170Z,27.47
2018-11-02T16:18:28.304Z,29.63
2018-11-02T16:20:58.448Z,27.47
2018-11-02T16:23:28.592Z,29.00
2018-11-02T16:25:58.684Z,26.87
2018-11-02T16:28:28.760Z,24.87
2018-11-02T16:30:58.866Z,25.53
2018-11-02T16:33:28.936Z,23.53
2018-11-02T16:35:59.053Z,24.20
2018-11-02T16:38:29.096Z,22.83
2018-11-02T16:40:59.161Z,25.07
2018-11-02T16:43:29.249Z,26.20
2018-11-02T16:45:59.336Z,24.27
2018-11-02T16:48:29.393Z,23.00
2018-11-02T16:50:59.479Z,21.90
2018-11-02T16:53:29.546Z,23.23
2018-11-02T16:55:59.689Z,19.60
2018-11-02T16:58:29.760Z,20.50
2018-11-02T17:00:59.748Z,23.43
2018-11-02T17:03:29.873Z,24.53
2018-11-02T17:06:00.157Z,22.20
2018-11-02T17:08:30.061Z,18.43
2018-11-02T17:11:00.184Z,20.20
2018-11-02T17:13:30.309Z,19.43
2018-11-02T17:16:00.384Z,18.83
2018-11-02T17:18:30.466Z,16.20
2018-11-02T17:21:00.560Z,18.03
2018-11-02T17:23:30.641Z,19.10
2018-11-02T17:26:00.713Z,19.67
2018-11-02T17:28:30.853Z,16.37
2018-11-02T17:31:00.916Z,17.87
2018-11-02T17:33:31.136Z,17.53
2018-11-02T17:36:01.212Z,17.83
2018-11-02T17:38:31.265Z,20.90
2018-11-02T17:41:01.349Z,16.87
2018-11-02T17:43:31.532Z,16.50
2018-11-02T17:46:01.609Z,15.87
2018-11-02T17:48:31.617Z,17.83
2018-11-02T17:51:01.701Z,14.80
2018-11-02T17:53:31.923Z,15.00
2018-11-02T17:56:02.001Z,14.10
2018-11-02T17:58:32.079Z,15.77
2018-11-02T18:01:02.140Z,16.73
2018-11-02T18:03:32.280Z,13.23
2018-11-02T18:06:02.429Z,14.23
2018-11-02T18:08:32.530Z,14.93
2018-11-02T18:11:02.650Z,16.10
2018-11-02T18:13:32.736Z,15.33
2018-11-02T18:16:02.897Z,16.97
2018-11-02T18:18:32.988Z,14.27
2018-11-02T18:21:03.133Z,16.33
2018-11-02T18:23:33.258Z,12.73
2018-11-02T18:26:03.337Z,14.30
2018-11-02T18:28:33.426Z,13.97
2018-11-02T18:31:03.414Z,15.03
2018-11-02T18:33:33.497Z,13.57
2018-11-02T18:36:03.597Z,14.50
2018-11-02T18:38:33.688Z,13.97
2018-11-02T18:41:03.738Z,13.90
2018-11-02T18:43:33.828Z,16.30
2018-11-02T18:46:03.943Z,13.60
2018-11-02T18:48:34.044Z,14.33
2018-11-02T18:51:04.042Z,14.13
2018-11-02T18:53:34.132Z,16.77
2018-11-02T18:56:04.173Z,18.40
2018-11-02T18:58:34.265Z,15.10
2018-11-02T19:01:04.396Z,13.10
2018-11-02T19:03:34.512Z,13.63
2018-11-02T19:06:05.363Z,12.13
2018-11-02T19:08:35.412Z,14.77
2018-11-02T19:11:05.587Z,14.23
2018-11-02T19:13:35.689Z,15.27
2018-11-02T19:16:06.391Z,14.60
2018-11-02T19:18:36.533Z,16.40
2018-11-02T19:21:06.660Z,17.93
2018-11-02T19:23:36.768Z,18.40
2018-11-02T19:26:06.800Z,15.57
2018-11-02T19:28:36.901Z,18.10
2018-11-02T19:31:06.965Z,15.37
2018-11-02T19:33:37.049Z,19.37
2018-11-02T19:36:07.219Z,17.37
2018-11-02T19:38:37.387Z,16.43
2018-11-02T19:41:07.421Z,18.73
2018-11-02T19:43:37.573Z,18.27
2018-11-02T19:46:07.676Z,14.93
2018-11-02T19:48:37.749Z,18.10
2018-11-02T19:51:07.876Z,18.30
2018-11-02T19:53:37.935Z,16.53
2018-11-02T19:56:07.985Z,18.73
2018-11-02T19:58:38.344Z,20.30
2018-11-02T20:01:08.565Z,21.77
2018-11-02T20:03:38.633Z,22.40
2018-11-02T20:06:08.902Z,20.47
2018-11-02T20:08:39.585Z,22.97
2018-11-02T20:11:09.721Z,21.60
2018-11-02T20:13:39.818Z,27.00
2018-11-02T20:16:09.900Z,21.40
2018-11-02T20:18:39.889Z,24.97
2018-11-02T20:21:09.984Z,21.07
2018-11-02T20:23:40.128Z,23.23
2018-11-02T20:26:10.212Z,24.30
2018-11-02T20:28:40.430Z,23.50
2018-11-02T20:31:10.557Z,23.90
2018-11-02T20:33:40.804Z,24.33
2018-11-02T20:36:10.865Z,24.83
2018-11-02T20:38:41.088Z,26.43
2018-11-02T20:41:11.238Z,28.03
2018-11-02T20:43:41.357Z,26.70
2018-11-02T20:46:11.440Z,25.03
2018-11-02T20:48:41.607Z,23.73
2018-11-02T20:51:11.765Z,29.07
2018-11-02T20:53:42.042Z,29.23
2018-11-02T20:56:12.042Z,34.47
2018-11-02T20:58:42.205Z,28.83
2018-11-02T21:01:12.437Z,24.47
2018-11-02T21:03:42.485Z,24.90
2018-11-02T21:06:12.732Z,27.20
2018-11-02T21:08:42.835Z,22.70
2018-11-02T21:11:12.957Z,22.03
2018-11-02T21:13:43.019Z,25.50
2018-11-02T21:16:13.202Z,21.43
2018-11-02T21:18:43.526Z,23.90
2018-11-02T21:21:13.650Z,24.83
2018-11-02T21:23:43.864Z,20.73
2018-11-02T21:26:13.976Z,20.63
2018-11-02T21:28:44.134Z,22.10
2018-11-02T21:31:14.245Z,22.00
2018-11-02T21:33:44.481Z,16.90
2018-11-02T21:36:14.497Z,20.13
2018-11-02T21:38:44.627Z,19.53
2018-11-02T21:41:14.666Z,21.00
2018-11-02T21:43:44.777Z,19.23
2018-11-02T21:46:14.903Z,20.10
2018-11-02T21:48:45.084Z,18.73
2018-11-02T21:51:15.196Z,19.73
2018-11-02T21:53:45.244Z,19.43
2018-11-02T21:56:15.373Z,19.50
2018-11-02T21:58:45.438Z,20.63
2018-11-02T22:01:15.628Z,16.30
2018-11-02T22:03:45.727Z,17.40
2018-11-02T22:06:15.817Z,14.67
2018-11-02T22:08:45.956Z,14.70
2018-11-02T22:11:16.079Z,14.60
2018-11-02T22:13:46.058Z,11.90
2018-11-02T22:16:16.220Z,13.60
2018-11-02T22:18:46.346Z,13.70
2018-11-02T22:21:16.380Z,13.83
2018-11-02T22:23:46.660Z,9.97
2018-11-02T22:26:16.721Z,12.80
2018-11-02T22:28:46.984Z,12.23
2018-11-02T22:31:17.121Z,12.13
2018-11-02T22:33:47.028Z,8.70
2018-11-02T22:36:17.141Z,10.20
2018-11-02T22:38:47.272Z,9.57
2018-11-02T22:41:17.376Z,10.33
2018-11-02T22:43:47.400Z,9.37
2018-11-02T22:46:17.651Z,10.40
2018-11-02T22:48:47.721Z,12.40
2018-11-02T22:51:17.825Z,13.17
2018-11-02T22:53:47.988Z,11.67
2018-11-02T22:56:18.069Z,9.70
2018-11-02T22:58:48.172Z,11.07
2018-11-02T23:01:23.553Z,10.80
2018-11-02T23:03:53.564Z,9.63
2018-11-02T23:06:23.669Z,11.17
2018-11-02T23:08:54.276Z,10.20
2018-11-02T23:11:24.664Z,12.57
2018-11-02T23:13:55.393Z,10.77
2018-11-02T23:16:25.492Z,12.57
2018-11-02T23:18:55.589Z,10.47
2018-11-02T23:21:25.700Z,8.47
2018-11-02T23:23:55.760Z,11.10
2018-11-02T23:26:25.862Z,10.33
2018-11-02T23:28:55.918Z,12.50
2018-11-02T23:31:25.996Z,10.70
2018-11-02T23:33:56.124Z,10.67
2018-11-02T23:36:26.112Z,11.60
2018-11-02T23:38:56.472Z,12.30
2018-11-02T23:47:37.409Z,10.63
2018-11-02T23:50:08.881Z,11.13
2018-11-02T23:52:38.948Z,10.03
2018-11-02T23:55:09.335Z,10.93
2018-11-02T23:57:39.403Z,8.90
